Simms, Montana
Current Conditions -  °F | °C
As of 6:53 AM on Saturday 25 Oct 2014 (Local Time) from KGTF Reporting Station
Clear Clear  
Wind Chill: 36°   Ceiling: Unl
Heat Index: 39°   Visibility: 10mi
Dew Point: 37°   Wind: 5mph
Humidity: 93%   Direction: 80°E
Pressure: 29.97"   Gusts: NA
Location:  47.5°N, 111.93°W
Report Text: KGTF 251253Z 08004KT 10SM CLR 04/03 A2997 RMK AO2 SLP162 T00390028
Loading
Personal Weather Stations






























Interactive Weather Map
Tropical Storm Tracking
New forecast layout! Learn more

10-Day Weather Forecast

Advertisements
Track Severe Weather on mobile